| time (UTC) | temp F | wind direction | speed knots | gust knots | rain 1hr in | rain 24hr in | rain mn in | humidity % | barometer mb |
| 20260506192206 | 68 | 40 | 0.0 | 12.2 | 0.00 | 0.00 | 0.00 | 73 | 1009.2 |
| 20260506185204 | 68 | 135 | 1.7 | 11.3 | 0.00 | 0.00 | 0.00 | 74 | 1009.3 |
| 20260506182201 | 67 | 104 | 0.0 | 1.7 | 0.00 | 0.00 | 0.00 | 77 | 1009.7 |
| 20260506175156 | 69 | 104 | 0.0 | 4.3 | 0.00 | 0.00 | 0.00 | 73 | 1009.8 |
| 20260506172145 | 68 | 156 | 0.0 | 5.2 | 0.00 | 0.00 | 0.00 | 72 | 1009.9 |
| 20260506165148 | 68 | 77 | 0.0 | 11.3 | 0.00 | 0.00 | 0.00 | 73 | 1010.2 |
| 20260506162132 | 70 | 175 | 0.0 | 3.5 | 0.00 | 0.00 | 0.00 | 67 | 1010.6 |
| 20260506155122 | 70 | 358 | 0.0 | 2.6 | 0.00 | 0.00 | 0.00 | 65 | 1011.1 |
| 20260506152117 | 70 | 119 | 0.0 | 2.6 | 0.00 | 0.00 | 0.00 | 62 | 1011.2 |
| 20260506145108 | 72 | 358 | 0.0 | 3.5 | 0.00 | 0.00 | 0.00 | 57 | 1011.1 |
| 20260506142058 | 71 | 149 | 0.0 | 7.0 | 0.00 | 0.00 | 0.00 | 58 | 1011.2 |
| 20260506135052 | 71 | 126 | 0.0 | 7.0 | 0.00 | 0.00 | 0.00 | 59 | 1011.1 |
| 20260506132046 | 70 | 109 | 0.9 | 4.3 | 0.00 | 0.00 | 0.00 | 62 | 1011.1 |
| 20260506125045 | 69 | 167 | 0.0 | 6.1 | 0.00 | 0.00 | 0.00 | 64 | 1011.5 |
| 20260506122045 | 69 | 80 | 0.9 | 7.0 | 0.00 | 0.00 | 0.00 | 67 | 1011.4 |
| 20260506115044 | 67 | 358 | 0.0 | 4.3 | 0.00 | 0.00 | 0.00 | 69 | 1011.4 |
| 20260506112047 | 66 | 215 | 0.0 | 6.1 | 0.00 | 0.00 | 0.00 | 71 | 1011.3 |
| 20260506105045 | 65 | 222 | 0.0 | 1.7 | 0.00 | 0.00 | 0.00 | 72 | 1011.4 |
| 20260506102044 | 65 | 14 | 0.0 | 3.5 | 0.00 | 0.00 | 0.00 | 73 | 1011.4 |
| 20260506095044 | 65 | 18 | 0.0 | 8.7 | 0.00 | 0.00 | 0.00 | 73 | 1011.4 |
| 20260506092044 | 66 | 157 | 0.9 | 7.0 | 0.00 | 0.00 | 0.00 | 73 | 1011.3 |
| 20260506085044 | 67 | 160 | 0.0 | 3.5 | 0.00 | 0.00 | 0.00 | 73 | 1011.3 |
| 20260506082044 | 67 | 135 | 0.0 | 3.5 | 0.00 | 0.00 | 0.00 | 73 | 1011.6 |
| 20260506072024 | 68 | 82 | 0.0 | 5.2 | 0.00 | 0.00 | 0.00 | 71 | 1011.6 |
| 20260506062002 | 68 | 196 | 0.0 | 2.6 | 0.00 | 0.00 | 0.00 | 70 | 1011.7 |
| 20260506044941 | 70 | 115 | 0.0 | 5.2 | 0.00 | 0.00 | 0.00 | 66 | 1012.3 |
| 20260506041938 | 69 | 217 | 0.0 | 9.6 | 0.00 | 0.00 | 0.00 | 65 | 1012.3 |
| 20260506034929 | 70 | 144 | 0.0 | 7.0 | 0.00 | 0.00 | 0.00 | 64 | 1012.3 |
| 20260506031925 | 70 | 170 | 0.9 | 5.2 | 0.00 | 0.00 | 0.00 | 62 | 1012.2 |
| 20260506024901 | 71 | 150 | 0.9 | 7.8 | 0.00 | 0.00 | 0.00 | 59 | 1012.3 |
| 20260506021857 | 71 | 90 | 0.9 | 7.8 | 0.00 | 0.00 | 0.00 | 56 | 1012.2 |
| 20260506014853 | 72 | 158 | 0.9 | 7.8 | 0.00 | 0.00 | 0.00 | 54 | 1012.0 |
| 20260506011853 | 72 | 184 | 0.0 | 8.7 | 0.00 | 0.00 | 0.00 | 54 | 1011.8 |
| 20260506004844 | 73 | 143 | 0.9 | 7.0 | 0.00 | 0.00 | 0.00 | 52 | 1011.5 |
| 20260506001835 | 75 | 116 | 0.0 | 6.1 | 0.00 | 0.00 | 0.00 | 46 | 1011.1 |
| 20260505234827 | 78 | 226 | 0.0 | 5.2 | 0.00 | 0.00 | 0.00 | 40 | 1011.0 |
| 20260505231820 | 80 | 67 | 0.0 | 9.6 | 0.00 | 0.00 | 0.00 | 35 | 1010.6 |
| 20260505224815 | 81 | 340 | 0.0 | 15.6 | 0.00 | 0.00 | 0.00 | 34 | 1010.5 |
| 20260505221810 | 82 | 142 | 3.5 | 15.6 | 0.00 | 0.00 | 0.00 | 32 | 1010.6 |
| 20260505214809 | 84 | 135 | 1.7 | 15.6 | 0.00 | 0.00 | 0.00 | 30 | 1010.5 |
| 20260505211804 | 84 | 180 | 0.0 | 13.0 | 0.00 | 0.00 | 0.00 | 28 | 1010.1 |
| 20260505204759 | 85 | 161 | 0.0 | 13.0 | 0.00 | 0.00 | 0.00 | 24 | 1010.0 |
| 20260505201754 | 86 | 80 | 2.6 | 13.9 | 0.00 | 0.00 | 0.00 | 22 | 1009.8 |
| 20260505194745 | 86 | 150 | 0.9 | 9.6 | 0.00 | 0.00 | 0.00 | 25 | 1010.1 |